Warning: Undefined array key 4 in /home/r122164/public_html/weather/weather-stations.php on line 16

Weather in selectable METAR weather stations Station search

1) Select the Continent / Group:

[Europe]  [Asia]  [Africa]  [North America]  [South America]  
[Central America and Caribbean]  [Oceania]  [Antarctica]  
2) Select the Weather station (City):


METAR = EFHK 261750Z 12006KT CAVOK 20/13 Q1026 NOSIG

STATIONEFHK
NAMEHelsinki/Vantaa Arpt, UU, FI
OBSERVED26.05.2024 20:50 (26.05.2024 17:50 UTC), 15 min ago
TEMPERATURE20.0°C ( 68°F)
WINDESE at 3.1 m/s (11.16 km/h)
HUMIDITY64%
HEATINDEX23.9°C (75°F)
PRESSURE1026.1 hPa
LOCATIONMap
Click here to search the weather station or to give the station identifier
(four-character ICAO Location Indicator) for weather data.